createdAt,value
2019-03-20T00:00:02.386Z,3.83
2019-03-20T00:01:08.299Z,3.90
2019-03-20T00:02:13.893Z,3.89
2019-03-20T00:03:19.477Z,3.93
2019-03-20T00:04:25.057Z,3.81
2019-03-20T00:05:30.643Z,3.86
2019-03-20T00:06:36.214Z,3.85
2019-03-20T00:07:41.852Z,3.82
2019-03-20T00:08:47.476Z,3.80
2019-03-20T00:09:53.113Z,3.87
2019-03-20T00:10:58.669Z,3.90
2019-03-20T00:12:04.259Z,3.94
2019-03-20T00:13:09.829Z,4.04
2019-03-20T00:14:15.432Z,4.13
2019-03-20T00:15:21.063Z,3.94
2019-03-20T00:16:26.913Z,4.00
2019-03-20T00:17:32.512Z,3.98
2019-03-20T00:18:38.109Z,4.08
2019-03-20T00:19:43.738Z,4.18
2019-03-20T00:20:49.354Z,3.94
2019-03-20T00:21:54.929Z,4.00
2019-03-20T00:23:00.193Z,3.95
2019-03-20T00:24:05.482Z,3.91
2019-03-20T00:25:10.411Z,4.10
2019-03-20T00:26:15.994Z,3.90
2019-03-20T00:27:21.275Z,3.97
2019-03-20T00:28:26.862Z,3.79
2019-03-20T00:29:32.505Z,3.66
2019-03-20T00:30:38.084Z,3.60
2019-03-20T00:31:43.659Z,3.48
2019-03-20T00:32:48.594Z,3.46
2019-03-20T00:33:54.198Z,3.34
2019-03-20T00:35:01.301Z,3.21
2019-03-20T00:36:05.477Z,3.24
2019-03-20T00:37:10.697Z,3.39
2019-03-20T00:38:16.345Z,3.58
2019-03-20T00:39:21.948Z,3.52
2019-03-20T00:40:27.579Z,3.44
2019-03-20T00:41:33.166Z,3.35
2019-03-20T00:42:38.769Z,3.39
2019-03-20T00:43:44.337Z,3.40
2019-03-20T00:44:49.919Z,3.36
2019-03-20T00:45:55.601Z,3.37
2019-03-20T00:47:01.115Z,3.47
2019-03-20T00:48:06.342Z,3.44
2019-03-20T00:49:11.920Z,3.20
2019-03-20T00:50:16.854Z,3.07
2019-03-20T00:51:22.964Z,3.24
2019-03-20T00:52:28.548Z,3.28
2019-03-20T00:53:34.142Z,3.29
2019-03-20T00:54:39.710Z,3.29
2019-03-20T00:55:45.303Z,3.33
2019-03-20T00:56:50.901Z,3.15
2019-03-20T00:57:56.502Z,3.20
2019-03-20T00:59:02.058Z,3.17
2019-03-20T01:00:06.926Z,3.01
2019-03-20T01:01:12.306Z,3.22
2019-03-20T01:02:17.925Z,3.34
2019-03-20T01:03:23.479Z,3.20
2019-03-20T01:04:29.081Z,3.25
2019-03-20T01:05:34.666Z,3.23
2019-03-20T01:06:40.218Z,3.11
2019-03-20T01:07:45.495Z,3.09
2019-03-20T01:08:50.736Z,3.08
2019-03-20T01:09:56.306Z,3.01
2019-03-20T01:11:01.927Z,3.03
2019-03-20T01:12:06.783Z,2.95
2019-03-20T01:13:12.369Z,3.06
2019-03-20T01:14:17.965Z,2.99
2019-03-20T01:15:22.897Z,3.16
2019-03-20T01:16:28.484Z,2.99
2019-03-20T01:17:34.119Z,2.76
2019-03-20T01:18:39.722Z,2.85
2019-03-20T01:19:45.489Z,2.97
2019-03-20T01:20:51.091Z,2.85
2019-03-20T01:21:56.346Z,2.90
2019-03-20T01:23:01.921Z,2.78
2019-03-20T01:24:07.576Z,2.77
2019-03-20T01:25:12.747Z,2.76
2019-03-20T01:26:18.369Z,2.57
2019-03-20T01:27:23.920Z,2.61
2019-03-20T01:28:29.540Z,2.70
2019-03-20T01:29:35.148Z,2.73
2019-03-20T01:30:40.160Z,2.73
2019-03-20T01:31:45.785Z,2.63
2019-03-20T01:32:51.374Z,2.53
2019-03-20T01:33:57.002Z,2.38
2019-03-20T01:35:02.616Z,2.23
2019-03-20T01:36:08.188Z,2.26
2019-03-20T01:37:13.816Z,2.20
2019-03-20T01:38:19.452Z,2.22
2019-03-20T01:39:25.040Z,2.52
2019-03-20T01:40:30.628Z,2.48
2019-03-20T01:41:38.300Z,2.39
2019-03-20T01:42:41.860Z,2.36
2019-03-20T01:43:47.471Z,2.25
2019-03-20T01:44:53.061Z,2.17
2019-03-20T01:45:58.703Z,2.20
2019-03-20T01:47:06.712Z,2.24
2019-03-20T01:48:09.748Z,2.16
2019-03-20T01:49:15.359Z,2.21
2019-03-20T01:50:20.964Z,2.16
2019-03-20T01:51:26.594Z,1.99
2019-03-20T01:52:32.170Z,1.93
2019-03-20T01:53:37.742Z,1.74
2019-03-20T01:54:43.337Z,1.88
2019-03-20T01:55:48.976Z,1.93
2019-03-20T01:56:54.529Z,1.96
2019-03-20T01:58:00.135Z,1.98
2019-03-20T01:59:05.948Z,1.83
2019-03-20T02:00:10.802Z,1.79
2019-03-20T02:01:16.431Z,1.76
2019-03-20T02:02:22.045Z,1.64
2019-03-20T02:03:27.278Z,1.67
2019-03-20T02:04:32.844Z,1.53
2019-03-20T02:05:38.401Z,1.53
2019-03-20T02:06:43.979Z,1.69
2019-03-20T02:07:49.254Z,1.79
2019-03-20T02:08:54.852Z,1.70
2019-03-20T02:10:00.436Z,1.58
2019-03-20T02:11:06.269Z,1.67
2019-03-20T02:12:11.872Z,1.73
2019-03-20T02:13:17.433Z,1.70
2019-03-20T02:14:23.048Z,1.71
2019-03-20T02:15:37.940Z,1.71
2019-03-20T02:16:34.272Z,1.73
2019-03-20T02:17:39.503Z,1.80
2019-03-20T02:18:45.047Z,1.72
2019-03-20T02:19:50.605Z,1.54
2019-03-20T02:20:56.224Z,1.60
2019-03-20T02:22:01.851Z,1.65
2019-03-20T02:23:07.083Z,1.65
2019-03-20T02:24:12.648Z,1.68
2019-03-20T02:25:17.894Z,1.63
2019-03-20T02:26:23.172Z,1.72
2019-03-20T02:27:28.749Z,1.69
2019-03-20T02:28:34.358Z,1.74
2019-03-20T02:29:39.976Z,1.84
2019-03-20T02:30:45.558Z,1.75
2019-03-20T02:31:51.172Z,1.64
2019-03-20T02:32:56.775Z,1.71
2019-03-20T02:34:02.361Z,1.66
2019-03-20T02:35:07.943Z,1.74
2019-03-20T02:36:13.528Z,1.71
2019-03-20T02:37:19.158Z,1.78
2019-03-20T02:38:24.833Z,1.66
2019-03-20T02:39:30.403Z,1.73
2019-03-20T02:40:35.976Z,1.79
2019-03-20T02:41:41.590Z,1.64
2019-03-20T02:42:47.247Z,1.63
2019-03-20T02:43:52.848Z,1.85
2019-03-20T02:44:58.446Z,1.91
2019-03-20T02:46:04.284Z,1.93
2019-03-20T02:47:09.911Z,1.93
2019-03-20T02:48:15.484Z,1.90
2019-03-20T02:49:21.076Z,1.94
2019-03-20T02:50:26.656Z,1.84
2019-03-20T02:51:32.299Z,1.48
2019-03-20T02:52:37.950Z,1.55
2019-03-20T02:53:43.526Z,1.48
2019-03-20T02:54:49.136Z,1.34
2019-03-20T02:55:54.770Z,1.34
2019-03-20T02:57:00.370Z,1.43
2019-03-20T02:58:05.968Z,1.48
2019-03-20T02:59:11.560Z,1.33
2019-03-20T03:00:17.219Z,1.21
2019-03-20T03:01:22.810Z,1.10
2019-03-20T03:02:28.415Z,0.90
2019-03-20T03:03:33.991Z,0.60
2019-03-20T03:04:39.582Z,0.47
2019-03-20T03:05:45.148Z,0.37
2019-03-20T03:06:50.750Z,0.31
2019-03-20T03:07:56.369Z,0.23
2019-03-20T03:09:01.954Z,0.20
2019-03-20T03:10:06.946Z,0.32
2019-03-20T03:11:12.528Z,0.25
2019-03-20T03:12:18.155Z,0.20
2019-03-20T03:13:24.687Z,0.20
2019-03-20T03:14:30.276Z,0.23
2019-03-20T03:15:35.508Z,0.38
2019-03-20T03:16:41.118Z,0.31
2019-03-20T03:17:46.755Z,0.42
2019-03-20T03:18:52.376Z,0.49
2019-03-20T03:19:57.952Z,0.46
2019-03-20T03:21:03.639Z,0.48
2019-03-20T03:22:09.218Z,0.49
2019-03-20T03:23:14.805Z,0.48
2019-03-20T03:24:20.427Z,0.43
2019-03-20T03:25:25.973Z,0.41
2019-03-20T03:26:31.535Z,0.42
2019-03-20T03:27:37.133Z,0.47
2019-03-20T03:28:42.751Z,0.53
2019-03-20T03:29:48.419Z,0.57
2019-03-20T03:30:54.002Z,0.43
2019-03-20T03:31:59.576Z,0.29
2019-03-20T03:33:05.165Z,0.15
2019-03-20T03:34:10.769Z,0.03
2019-03-20T03:35:18.516Z,-0.09
2019-03-20T03:36:22.020Z,-0.19
2019-03-20T03:37:26.986Z,-0.17
2019-03-20T03:38:32.631Z,-0.20
2019-03-20T03:39:38.201Z,-0.19
2019-03-20T03:40:43.108Z,-0.24
2019-03-20T03:41:48.687Z,-0.33
2019-03-20T03:42:54.293Z,-0.35
2019-03-20T03:43:59.913Z,-0.36
2019-03-20T03:45:04.804Z,-0.41
2019-03-20T03:46:10.390Z,-0.46
2019-03-20T03:47:15.969Z,-0.29
2019-03-20T03:48:21.229Z,-0.29
2019-03-20T03:49:26.829Z,-0.34
2019-03-20T03:50:32.391Z,-0.36
2019-03-20T03:51:37.996Z,-0.51
2019-03-20T03:52:43.003Z,-0.47
2019-03-20T03:53:48.619Z,-0.51
2019-03-20T03:54:54.215Z,-0.47
2019-03-20T03:55:59.846Z,-0.46
2019-03-20T03:57:05.113Z,-0.40
2019-03-20T03:58:10.393Z,-0.40
2019-03-20T03:59:15.987Z,-0.45
2019-03-20T04:00:21.314Z,-0.42
2019-03-20T04:01:26.862Z,-0.41
2019-03-20T04:02:32.460Z,-0.42
2019-03-20T04:03:38.083Z,-0.35
2019-03-20T04:04:43.683Z,-0.40
2019-03-20T04:05:49.277Z,-0.36
2019-03-20T04:06:54.906Z,-0.37
2019-03-20T04:08:00.530Z,-0.42
2019-03-20T04:09:05.463Z,-0.42
2019-03-20T04:10:13.139Z,-0.44
2019-03-20T04:11:18.723Z,-0.42
2019-03-20T04:12:24.344Z,-0.37
2019-03-20T04:13:29.977Z,-0.40
2019-03-20T04:14:35.561Z,-0.36
2019-03-20T04:15:41.338Z,-0.36
2019-03-20T04:16:46.945Z,-0.24
2019-03-20T04:17:52.607Z,-0.12
2019-03-20T04:18:57.890Z,-0.07
2019-03-20T04:20:03.136Z,-0.06
2019-03-20T04:21:08.730Z,-0.03
2019-03-20T04:22:14.363Z,-0.02
2019-03-20T04:23:19.945Z,0.08
2019-03-20T04:24:25.583Z,-0.02
2019-03-20T04:25:31.146Z,0.03
2019-03-20T04:26:36.725Z,0.09
2019-03-20T04:27:41.675Z,0.17
2019-03-20T04:28:47.332Z,0.02
2019-03-20T04:29:52.588Z,-0.08
2019-03-20T04:30:58.164Z,-0.13
2019-03-20T04:32:03.415Z,-0.21
2019-03-20T04:33:09.041Z,-0.26
2019-03-20T04:34:14.649Z,-0.31
2019-03-20T04:35:19.897Z,-0.30
2019-03-20T04:36:25.489Z,-0.31
2019-03-20T04:37:31.084Z,-0.30
2019-03-20T04:38:36.706Z,-0.27
2019-03-20T04:39:42.323Z,-0.30
2019-03-20T04:40:47.904Z,-0.09
2019-03-20T04:41:53.562Z,-0.09
2019-03-20T04:42:59.121Z,-0.22
2019-03-20T04:44:04.072Z,-0.16
2019-03-20T04:45:12.151Z,-0.20
2019-03-20T04:46:15.516Z,-0.24
2019-03-20T04:47:21.174Z,-0.35
2019-03-20T04:48:26.827Z,-0.41
2019-03-20T04:49:32.429Z,-0.39
2019-03-20T04:50:38.002Z,-0.45
2019-03-20T04:51:43.632Z,-0.40
2019-03-20T04:52:49.226Z,-0.39
2019-03-20T04:53:54.880Z,-0.40
2019-03-20T04:55:00.472Z,-0.35
2019-03-20T04:56:05.697Z,-0.40
2019-03-20T04:57:11.314Z,-0.46
2019-03-20T04:58:16.964Z,-0.44
2019-03-20T04:59:22.637Z,-0.48
2019-03-20T05:00:28.253Z,-0.51
2019-03-20T05:01:33.865Z,-0.55
2019-03-20T05:02:39.487Z,-0.53
2019-03-20T05:03:45.095Z,-0.54
2019-03-20T05:04:50.726Z,-0.52
2019-03-20T05:05:56.318Z,-0.54
2019-03-20T05:07:01.933Z,-0.53
2019-03-20T05:08:07.205Z,-0.54
2019-03-20T05:09:12.835Z,-0.47
2019-03-20T05:10:18.412Z,-0.35
2019-03-20T05:11:24.034Z,-0.16
2019-03-20T05:12:29.616Z,-0.21
2019-03-20T05:13:35.258Z,-0.34
2019-03-20T05:14:40.895Z,-0.42
2019-03-20T05:15:46.489Z,-0.44
2019-03-20T05:16:52.234Z,-0.48
2019-03-20T05:17:58.997Z,-0.54
2019-03-20T05:19:04.752Z,-0.53
2019-03-20T05:20:12.995Z,-0.52
2019-03-20T05:21:18.587Z,-0.57
2019-03-20T05:22:24.181Z,-0.50
2019-03-20T05:23:29.783Z,-0.55
2019-03-20T05:24:35.412Z,-0.54
2019-03-20T05:25:41.066Z,-0.41
2019-03-20T05:26:46.676Z,-0.28
2019-03-20T05:27:52.263Z,-0.42
2019-03-20T05:28:57.897Z,-0.44
2019-03-20T05:30:03.148Z,-0.36
2019-03-20T05:31:08.716Z,-0.42
2019-03-20T05:32:14.309Z,-0.59
2019-03-20T05:33:19.924Z,-0.56
2019-03-20T05:34:25.554Z,-0.46
2019-03-20T05:35:31.184Z,-0.48
2019-03-20T05:36:36.767Z,-0.62
2019-03-20T05:37:42.047Z,-0.62
2019-03-20T05:38:47.666Z,-0.59
2019-03-20T05:39:53.272Z,-0.51
2019-03-20T05:40:58.897Z,-0.51
2019-03-20T05:42:04.207Z,-0.56
2019-03-20T05:43:09.788Z,-0.45
2019-03-20T05:44:15.406Z,-0.60
2019-03-20T05:45:20.353Z,-0.54
2019-03-20T05:46:25.993Z,-0.53
2019-03-20T05:47:31.573Z,-0.49
2019-03-20T05:48:37.128Z,-0.52
2019-03-20T05:49:42.814Z,-0.43
2019-03-20T05:50:48.409Z,-0.47
2019-03-20T05:51:53.776Z,-0.53
2019-03-20T05:52:59.375Z,-0.60
2019-03-20T05:54:05.057Z,-0.61
2019-03-20T05:55:09.948Z,-0.61
2019-03-20T05:56:16.184Z,-0.61
2019-03-20T05:57:21.784Z,-0.63
2019-03-20T05:58:27.400Z,-0.63
2019-03-20T05:59:33.047Z,-0.56
2019-03-20T06:00:38.704Z,-0.38
2019-03-20T06:01:44.283Z,-0.16
2019-03-20T06:02:49.854Z,-0.12
2019-03-20T06:03:55.477Z,-0.14
2019-03-20T06:05:01.085Z,-0.14
2019-03-20T06:06:06.655Z,-0.13
2019-03-20T06:07:21.123Z,-0.03
2019-03-20T06:08:17.879Z,0.01
2019-03-20T06:09:23.562Z,-0.02
2019-03-20T06:10:29.174Z,-0.04
2019-03-20T06:11:34.770Z,0.05
2019-03-20T06:12:40.378Z,0.12
2019-03-20T06:13:45.923Z,0.27
2019-03-20T06:14:51.531Z,0.48
2019-03-20T06:15:57.089Z,0.45
2019-03-20T06:17:02.660Z,0.64
2019-03-20T06:18:08.838Z,0.60
2019-03-20T06:19:16.218Z,0.55
2019-03-20T06:20:21.792Z,0.52
2019-03-20T06:21:27.432Z,0.55
2019-03-20T06:22:33.041Z,0.55
2019-03-20T06:23:38.708Z,0.62
2019-03-20T06:24:44.308Z,0.58
2019-03-20T06:25:51.514Z,0.63
2019-03-20T06:26:55.493Z,0.79
2019-03-20T06:28:01.071Z,1.03
2019-03-20T06:29:06.636Z,1.05
2019-03-20T06:30:12.401Z,1.24
2019-03-20T06:31:18.842Z,1.40
2019-03-20T06:32:23.629Z,1.40
2019-03-20T06:33:29.261Z,1.43
2019-03-20T06:34:34.887Z,1.46
2019-03-20T06:35:40.473Z,1.32
2019-03-20T06:36:46.031Z,1.42
2019-03-20T06:37:51.591Z,1.50
2019-03-20T06:38:57.182Z,1.57
2019-03-20T06:40:02.812Z,1.48
2019-03-20T06:41:08.409Z,1.41
2019-03-20T06:42:14.003Z,1.73
2019-03-20T06:43:19.617Z,1.91
2019-03-20T06:44:25.256Z,1.70
2019-03-20T06:45:30.928Z,1.65
2019-03-20T06:46:36.508Z,1.75
2019-03-20T06:47:42.144Z,1.82
2019-03-20T06:48:47.737Z,1.92
2019-03-20T06:49:53.376Z,1.95
2019-03-20T06:50:58.939Z,2.04
2019-03-20T06:52:04.145Z,1.99
2019-03-20T06:53:09.756Z,2.15
2019-03-20T06:54:15.344Z,1.94
2019-03-20T06:55:20.952Z,1.95
2019-03-20T06:56:26.543Z,2.22
2019-03-20T06:57:32.130Z,2.24
2019-03-20T06:58:37.701Z,2.24
2019-03-20T06:59:52.337Z,2.15
2019-03-20T07:00:58.710Z,2.00
2019-03-20T07:02:03.754Z,2.20
2019-03-20T07:03:09.311Z,2.17
2019-03-20T07:04:14.188Z,2.17
2019-03-20T07:05:27.527Z,2.14
2019-03-20T07:08:10.621Z,2.14
2019-03-20T07:09:20.990Z,2.38
2019-03-20T07:10:26.716Z,2.41
2019-03-20T07:11:31.634Z,2.63
2019-03-20T07:12:37.350Z,2.64
2019-03-20T07:13:43.016Z,2.65
2019-03-20T07:14:48.615Z,2.85
2019-03-20T07:15:54.268Z,3.03
2019-03-20T07:16:59.838Z,2.99
2019-03-20T07:18:04.776Z,3.08
2019-03-20T07:19:10.345Z,3.13
2019-03-20T07:20:15.923Z,3.25
2019-03-20T07:21:21.494Z,3.09
2019-03-20T07:22:27.116Z,3.08
2019-03-20T07:23:32.739Z,3.23
2019-03-20T07:24:38.328Z,3.35
2019-03-20T07:25:43.910Z,3.28
2019-03-20T07:26:49.522Z,3.45
2019-03-20T07:27:55.146Z,3.49
2019-03-20T07:29:00.749Z,3.73
2019-03-20T07:30:05.666Z,3.77
2019-03-20T07:31:15.713Z,3.73
2019-03-20T07:32:16.532Z,3.78
2019-03-20T07:33:22.130Z,3.92
2019-03-20T07:34:27.686Z,3.97
2019-03-20T07:35:33.267Z,3.88
2019-03-20T07:36:38.889Z,3.96
2019-03-20T07:37:55.280Z,3.96
2019-03-20T07:38:49.715Z,4.19
2019-03-20T07:39:55.267Z,4.34
2019-03-20T07:41:00.881Z,4.25
2019-03-20T07:42:06.108Z,4.29
2019-03-20T07:43:11.371Z,4.31
2019-03-20T07:44:16.998Z,4.39
2019-03-20T07:45:22.554Z,4.39
2019-03-20T07:46:28.153Z,4.45
2019-03-20T07:47:33.716Z,4.45
2019-03-20T07:48:40.752Z,4.42
2019-03-20T07:49:44.898Z,4.53
2019-03-20T07:50:50.479Z,4.71
2019-03-20T07:51:56.076Z,4.64
2019-03-20T07:53:01.308Z,4.58
2019-03-20T07:54:06.948Z,4.60
2019-03-20T07:55:12.534Z,4.68
2019-03-20T07:56:18.313Z,4.80
2019-03-20T07:57:23.881Z,4.83
2019-03-20T07:58:29.468Z,5.01
2019-03-20T07:59:35.090Z,5.16
2019-03-20T08:00:40.327Z,5.18
2019-03-20T08:01:45.916Z,5.46
2019-03-20T08:02:51.484Z,5.29
2019-03-20T08:03:57.078Z,5.33
2019-03-20T08:05:02.694Z,5.28
2019-03-20T08:06:08.293Z,5.40
2019-03-20T08:07:13.973Z,5.43
2019-03-20T08:08:19.531Z,5.51
2019-03-20T08:09:25.774Z,5.79
2019-03-20T08:10:30.723Z,5.74
2019-03-20T08:11:35.967Z,5.78
2019-03-20T08:12:41.237Z,5.88
2019-03-20T08:13:46.900Z,6.03
2019-03-20T08:14:52.484Z,6.14
2019-03-20T08:15:58.085Z,6.16
2019-03-20T08:17:03.316Z,6.28
2019-03-20T08:18:08.910Z,6.48
2019-03-20T08:19:14.472Z,6.46
2019-03-20T08:20:22.014Z,6.47
2019-03-20T08:21:27.643Z,6.56
2019-03-20T08:22:33.202Z,6.49
2019-03-20T08:23:38.763Z,6.67
2019-03-20T08:24:44.365Z,6.74
2019-03-20T08:25:49.968Z,6.76
2019-03-20T08:26:55.579Z,6.98
2019-03-20T08:28:01.211Z,6.92
2019-03-20T08:29:06.788Z,7.06
2019-03-20T08:30:13.745Z,6.93
2019-03-20T08:31:17.321Z,7.03
2019-03-20T08:32:22.937Z,7.04
2019-03-20T08:33:28.571Z,7.31
2019-03-20T08:34:34.196Z,7.36
2019-03-20T08:35:39.750Z,7.47
2019-03-20T08:36:45.332Z,7.25
2019-03-20T08:37:50.914Z,7.14
2019-03-20T08:38:56.500Z,7.30
2019-03-20T08:40:02.086Z,7.50
2019-03-20T08:41:07.730Z,7.50
2019-03-20T08:42:13.350Z,7.44
2019-03-20T08:43:18.977Z,7.67
2019-03-20T08:44:24.228Z,7.98
2019-03-20T08:45:29.842Z,7.94
2019-03-20T08:46:35.478Z,8.13
2019-03-20T08:47:40.718Z,8.29
2019-03-20T08:48:48.328Z,8.10
2019-03-20T08:49:51.943Z,8.24
2019-03-20T08:50:57.522Z,8.36
2019-03-20T08:52:03.147Z,8.33
2019-03-20T08:53:08.705Z,8.33
2019-03-20T08:54:14.348Z,8.42
2019-03-20T08:55:19.193Z,8.54
2019-03-20T08:56:24.784Z,8.70
2019-03-20T08:57:30.417Z,8.61
2019-03-20T08:58:35.989Z,8.36
2019-03-20T08:59:41.577Z,8.58
2019-03-20T09:00:46.803Z,8.77
2019-03-20T09:01:52.399Z,8.78
2019-03-20T09:02:57.978Z,8.83
2019-03-20T09:04:03.573Z,9.01
2019-03-20T09:05:08.496Z,8.87
2019-03-20T09:06:13.750Z,8.97
2019-03-20T09:07:19.373Z,9.03
2019-03-20T09:08:29.225Z,9.00
2019-03-20T09:09:30.574Z,9.06
2019-03-20T09:10:36.217Z,8.89
2019-03-20T09:11:41.786Z,8.98
2019-03-20T09:12:47.061Z,9.19
2019-03-20T09:13:52.885Z,9.26
2019-03-20T09:14:58.519Z,9.51
2019-03-20T09:16:03.724Z,9.34
2019-03-20T09:17:09.350Z,9.39
2019-03-20T09:18:14.927Z,9.40
2019-03-20T09:19:20.526Z,9.32
2019-03-20T09:20:26.177Z,9.14
2019-03-20T09:21:31.766Z,9.26
2019-03-20T09:22:37.400Z,9.41
2019-03-20T09:23:42.983Z,9.54
2019-03-20T09:24:48.602Z,9.50
2019-03-20T09:25:54.162Z,9.67
2019-03-20T09:26:59.742Z,9.65
2019-03-20T09:28:05.022Z,9.56
2019-03-20T09:29:18.656Z,9.38
2019-03-20T09:30:25.480Z,9.42
2019-03-20T09:31:31.099Z,9.52
2019-03-20T09:32:36.715Z,9.38
2019-03-20T09:33:42.334Z,9.44
2019-03-20T09:34:47.939Z,9.46
2019-03-20T09:35:53.538Z,9.53
2019-03-20T09:36:59.154Z,9.73
2019-03-20T09:38:04.428Z,9.79
2019-03-20T09:39:10.031Z,9.65
2019-03-20T09:40:17.654Z,9.72
2019-03-20T09:41:23.300Z,9.67
2019-03-20T09:42:28.928Z,9.83
2019-03-20T09:43:34.518Z,10.00
2019-03-20T09:44:40.102Z,10.05
2019-03-20T09:45:45.684Z,9.85
2019-03-20T09:46:51.265Z,9.97
2019-03-20T09:47:56.865Z,10.16
2019-03-20T09:49:02.427Z,10.20
2019-03-20T09:50:08.714Z,10.27
2019-03-20T09:51:14.322Z,10.20
2019-03-20T09:52:19.957Z,10.17
2019-03-20T09:53:25.529Z,10.22
2019-03-20T09:54:31.149Z,10.37
2019-03-20T09:55:36.727Z,10.15
2019-03-20T09:56:42.352Z,10.30
2019-03-20T09:57:47.633Z,10.40
2019-03-20T09:58:53.294Z,10.36
2019-03-20T09:59:58.853Z,10.36
2019-03-20T10:01:03.775Z,10.17
2019-03-20T10:02:09.551Z,10.22
2019-03-20T10:03:15.233Z,10.35
2019-03-20T10:04:20.842Z,10.28
2019-03-20T10:05:26.132Z,10.36
2019-03-20T10:06:31.374Z,10.34
2019-03-20T10:07:37.042Z,10.40
2019-03-20T10:08:42.630Z,10.43
2019-03-20T10:09:48.199Z,10.52
2019-03-20T10:10:53.789Z,10.54
2019-03-20T10:11:59.377Z,10.59
2019-03-20T10:13:04.294Z,10.68
2019-03-20T10:14:09.868Z,10.48
2019-03-20T10:15:17.572Z,10.43
2019-03-20T10:16:23.239Z,10.75
2019-03-20T10:17:28.836Z,10.61
2019-03-20T10:18:34.453Z,10.49
2019-03-20T10:19:40.062Z,10.60
2019-03-20T10:20:45.639Z,10.87
2019-03-20T10:21:51.224Z,10.91
2019-03-20T10:22:56.526Z,10.70
2019-03-20T10:24:02.149Z,10.54
2019-03-20T10:25:07.050Z,10.17
2019-03-20T10:26:12.740Z,10.15
2019-03-20T10:27:18.352Z,10.27
2019-03-20T10:28:23.967Z,10.65
2019-03-20T10:29:29.553Z,10.53
2019-03-20T10:30:34.780Z,10.64
2019-03-20T10:31:40.362Z,10.85
2019-03-20T10:32:45.995Z,10.97
2019-03-20T10:33:51.553Z,10.94
2019-03-20T10:34:57.345Z,10.78
2019-03-20T10:36:02.925Z,11.01
2019-03-20T10:37:08.529Z,11.33
2019-03-20T10:38:14.177Z,11.45
2019-03-20T10:39:19.765Z,11.43
2019-03-20T10:40:24.655Z,11.55
2019-03-20T10:41:30.314Z,11.60
2019-03-20T10:42:35.913Z,11.37
2019-03-20T10:43:41.535Z,11.29
2019-03-20T10:44:47.171Z,11.55
2019-03-20T10:45:52.794Z,11.50
2019-03-20T10:46:58.416Z,11.45
2019-03-20T10:48:03.712Z,11.47
2019-03-20T10:49:09.278Z,11.66
2019-03-20T10:50:22.685Z,11.58
2019-03-20T10:51:28.304Z,11.56
2019-03-20T10:52:33.905Z,11.33
2019-03-20T10:53:39.765Z,11.37
2019-03-20T10:54:45.717Z,11.62
2019-03-20T10:55:51.976Z,11.48
2019-03-20T10:56:56.899Z,11.62
2019-03-20T10:58:02.507Z,11.44
2019-03-20T10:59:08.245Z,11.50
2019-03-20T11:00:15.841Z,11.61
2019-03-20T11:01:21.917Z,11.70
2019-03-20T11:02:27.721Z,11.81
2019-03-20T11:03:33.438Z,11.81
2019-03-20T11:04:39.183Z,12.00
2019-03-20T11:05:44.808Z,12.25
2019-03-20T11:06:50.417Z,12.26
2019-03-20T11:07:56.047Z,12.08
2019-03-20T11:09:01.674Z,12.12
2019-03-20T11:10:06.860Z,12.27
2019-03-20T11:11:12.477Z,12.23
2019-03-20T11:12:18.106Z,12.03
2019-03-20T11:13:23.450Z,12.20
2019-03-20T11:14:29.365Z,12.01
2019-03-20T11:15:34.802Z,12.01
2019-03-20T11:16:40.477Z,12.10
2019-03-20T11:17:45.546Z,12.17
2019-03-20T11:18:51.493Z,12.00
2019-03-20T11:19:57.366Z,12.19
2019-03-20T11:21:02.607Z,12.37
2019-03-20T11:22:18.266Z,12.35
2019-03-20T11:23:14.039Z,12.25
2019-03-20T11:24:19.884Z,12.36
2019-03-20T11:25:26.256Z,12.44
2019-03-20T11:26:31.535Z,12.60
2019-03-20T11:27:37.188Z,12.70
2019-03-20T11:28:42.815Z,12.29
2019-03-20T11:29:48.083Z,12.17
2019-03-20T11:30:53.684Z,12.05
2019-03-20T11:31:58.884Z,11.87
2019-03-20T11:33:04.135Z,12.14
2019-03-20T11:34:09.981Z,12.37
2019-03-20T11:35:15.312Z,12.33
2019-03-20T11:36:20.773Z,12.54
2019-03-20T11:37:26.427Z,12.51
2019-03-20T11:38:32.102Z,12.58
2019-03-20T11:39:37.826Z,12.48
2019-03-20T11:40:43.517Z,12.53
2019-03-20T11:41:49.160Z,12.53
2019-03-20T11:42:54.412Z,12.16
2019-03-20T11:44:00.048Z,12.42
2019-03-20T11:45:04.953Z,12.42
2019-03-20T11:46:10.514Z,12.68
2019-03-20T11:47:16.163Z,12.58
2019-03-20T11:48:21.758Z,12.51
2019-03-20T11:49:27.475Z,12.63
2019-03-20T11:50:32.408Z,12.63
2019-03-20T11:51:38.021Z,12.45
2019-03-20T11:52:43.611Z,12.74
2019-03-20T11:53:49.252Z,13.08
2019-03-20T11:54:54.919Z,12.76
2019-03-20T11:56:00.240Z,12.81
2019-03-20T11:57:06.053Z,12.88
2019-03-20T11:58:12.082Z,12.82
2019-03-20T11:59:17.943Z,12.55
2019-03-20T12:00:23.161Z,12.78
2019-03-20T12:01:29.077Z,12.69
2019-03-20T12:02:34.743Z,12.86
2019-03-20T12:03:40.346Z,12.93
2019-03-20T12:04:46.238Z,12.99
2019-03-20T12:05:51.894Z,12.86
2019-03-20T12:06:57.562Z,12.72
2019-03-20T12:08:02.536Z,12.68
2019-03-20T12:09:07.706Z,12.61
2019-03-20T12:10:31.454Z,12.49
2019-03-20T12:11:45.432Z,12.79
2019-03-20T12:12:42.429Z,13.12
2019-03-20T12:13:48.032Z,13.36
2019-03-20T12:14:53.632Z,13.31
2019-03-20T12:15:59.276Z,13.16
2019-03-20T12:17:04.554Z,13.08
2019-03-20T12:18:10.210Z,13.01
2019-03-20T12:19:15.881Z,13.14
2019-03-20T12:20:21.541Z,13.29
2019-03-20T12:21:27.130Z,13.29
2019-03-20T12:22:32.718Z,13.12
2019-03-20T12:23:38.311Z,13.37
2019-03-20T12:24:43.936Z,13.29
2019-03-20T12:25:49.513Z,13.41
2019-03-20T12:26:55.131Z,13.75
2019-03-20T12:28:00.539Z,13.40
2019-03-20T12:29:05.438Z,13.29
2019-03-20T12:30:10.364Z,13.02
2019-03-20T12:31:15.949Z,12.98
2019-03-20T12:32:21.556Z,13.29
2019-03-20T12:33:27.302Z,13.51
2019-03-20T12:34:32.969Z,13.37
2019-03-20T12:35:39.704Z,13.31
2019-03-20T12:36:45.286Z,13.46
2019-03-20T12:37:51.197Z,13.58
2019-03-20T12:38:57.071Z,13.74
2019-03-20T12:40:02.572Z,14.16
2019-03-20T12:41:08.211Z,14.16
2019-03-20T12:42:13.856Z,13.96
2019-03-20T12:43:19.773Z,13.99
2019-03-20T12:44:25.534Z,14.04
2019-03-20T12:45:33.999Z,13.95
2019-03-20T12:46:41.708Z,13.99
2019-03-20T12:47:45.084Z,13.55
2019-03-20T12:48:50.774Z,13.80
2019-03-20T12:49:56.541Z,13.87
2019-03-20T12:51:02.228Z,14.08
2019-03-20T12:52:07.984Z,14.15
2019-03-20T12:53:16.467Z,13.79
2019-03-20T12:54:22.095Z,13.80
2019-03-20T12:55:27.832Z,13.81
2019-03-20T12:56:33.554Z,13.74
2019-03-20T12:57:39.310Z,13.89
2019-03-20T12:58:45.016Z,13.73
2019-03-20T12:59:50.789Z,13.96
2019-03-20T13:00:56.416Z,14.12
2019-03-20T13:02:02.066Z,14.36
2019-03-20T13:03:07.349Z,14.33
2019-03-20T13:04:13.157Z,13.95
2019-03-20T13:05:18.226Z,13.70
2019-03-20T13:06:23.847Z,13.89
2019-03-20T13:07:29.658Z,14.13
2019-03-20T13:08:35.459Z,14.14
2019-03-20T13:09:41.220Z,14.22
2019-03-20T13:10:47.046Z,14.40
2019-03-20T13:11:52.780Z,14.02
2019-03-20T13:12:58.833Z,14.05
2019-03-20T13:14:03.853Z,14.18
2019-03-20T13:15:10.705Z,14.21
2019-03-20T13:16:16.345Z,14.25
2019-03-20T13:17:22.049Z,14.36
2019-03-20T13:18:27.791Z,14.22
2019-03-20T13:19:33.408Z,14.41
2019-03-20T13:20:39.066Z,14.32
2019-03-20T13:21:44.788Z,14.37
2019-03-20T13:22:53.532Z,14.01
2019-03-20T13:23:59.267Z,14.41
2019-03-20T13:25:06.112Z,13.95
2019-03-20T13:26:12.060Z,14.07
2019-03-20T13:27:17.328Z,14.45
2019-03-20T13:28:22.960Z,14.61
2019-03-20T13:29:28.636Z,14.86
2019-03-20T13:32:18.577Z,14.20
2019-03-20T13:33:26.114Z,14.39
2019-03-20T13:34:29.969Z,14.55
2019-03-20T13:35:35.731Z,14.40
2019-03-20T13:36:41.377Z,14.45
2019-03-20T13:37:47.231Z,14.42
2019-03-20T13:38:52.974Z,14.40
2019-03-20T13:39:58.784Z,14.50
2019-03-20T13:41:04.099Z,14.48
2019-03-20T13:42:09.931Z,14.56
2019-03-20T13:43:15.755Z,14.50
2019-03-20T13:44:21.581Z,14.63
2019-03-20T13:45:26.569Z,14.50
2019-03-20T13:46:32.289Z,14.02
2019-03-20T13:47:38.084Z,14.41
2019-03-20T13:48:43.741Z,14.49
2019-03-20T13:49:49.297Z,14.59
2019-03-20T13:50:54.594Z,14.67
2019-03-20T13:52:00.189Z,14.76
2019-03-20T13:53:05.388Z,15.09
2019-03-20T13:54:10.959Z,15.17
2019-03-20T13:55:16.822Z,14.98
2019-03-20T13:56:22.474Z,15.15
2019-03-20T13:57:28.102Z,14.71
2019-03-20T13:58:33.660Z,14.76
2019-03-20T13:59:39.248Z,14.56
2019-03-20T14:00:44.877Z,14.51
2019-03-20T14:01:50.475Z,14.44
2019-03-20T14:02:55.737Z,14.35
2019-03-20T14:04:01.329Z,14.59
2019-03-20T14:05:06.272Z,14.70
2019-03-20T14:06:11.909Z,14.91
2019-03-20T14:07:17.514Z,14.81
2019-03-20T14:08:23.127Z,14.68
2019-03-20T14:09:28.706Z,14.84
2019-03-20T14:10:34.324Z,14.98
2019-03-20T14:11:39.944Z,14.49
2019-03-20T14:12:45.339Z,14.45
2019-03-20T14:13:50.894Z,14.49
2019-03-20T14:14:56.535Z,14.44
2019-03-20T14:16:02.153Z,14.58
2019-03-20T14:17:07.718Z,14.54
2019-03-20T14:18:13.356Z,14.96
2019-03-20T14:19:18.942Z,14.60
2019-03-20T14:20:25.476Z,15.00
2019-03-20T14:21:30.784Z,14.73
2019-03-20T14:22:36.445Z,14.87